createdAt,value
2022-08-31T00:00:28.771Z,16.70
2022-08-31T00:03:14.283Z,16.70
2022-08-31T00:05:41.121Z,16.70
2022-08-31T00:08:09.039Z,16.70
2022-08-31T00:10:40.957Z,16.70
2022-08-31T00:13:10.507Z,16.60
2022-08-31T00:15:38.975Z,16.70
2022-08-31T00:18:06.839Z,16.60
2022-08-31T00:20:35.482Z,16.60
2022-08-31T00:23:05.885Z,16.50
2022-08-31T00:25:34.266Z,16.50
2022-08-31T00:28:03.777Z,16.50
2022-08-31T00:30:31.985Z,16.60
2022-08-31T00:33:00.680Z,16.60
2022-08-31T00:35:30.146Z,16.50
2022-08-31T00:37:58.054Z,16.50
2022-08-31T00:40:26.437Z,16.50
2022-08-31T00:42:54.672Z,16.50
2022-08-31T00:45:24.273Z,16.50
2022-08-31T00:47:53.080Z,16.50
2022-08-31T00:50:23.611Z,16.50
2022-08-31T00:52:57.990Z,16.50
2022-08-31T00:55:35.525Z,16.50
2022-08-31T00:58:12.340Z,16.50
2022-08-31T01:00:43.025Z,16.60
2022-08-31T01:03:11.348Z,16.50
2022-08-31T01:05:39.616Z,16.50
2022-08-31T01:08:08.298Z,16.50
2022-08-31T01:10:39.817Z,16.60
2022-08-31T01:13:09.124Z,16.50
2022-08-31T01:15:37.956Z,16.60
2022-08-31T01:18:06.999Z,16.60
2022-08-31T01:21:02.879Z,16.50
2022-08-31T01:23:35.047Z,16.50
2022-08-31T01:26:04.465Z,16.50
2022-08-31T01:28:33.044Z,16.40
2022-08-31T01:31:40.172Z,16.30
2022-08-31T01:34:07.161Z,16.30
2022-08-31T01:36:38.362Z,16.20
2022-08-31T01:39:07.634Z,16.20
2022-08-31T01:41:35.159Z,16.20
2022-08-31T01:44:03.548Z,16.20
2022-08-31T01:46:30.568Z,16.10
2022-08-31T01:48:59.526Z,16.00
2022-08-31T01:51:26.814Z,15.90
2022-08-31T01:53:55.750Z,15.90
2022-08-31T01:56:33.333Z,15.90
2022-08-31T01:59:08.346Z,15.90
2022-08-31T02:01:56.053Z,15.80
2022-08-31T02:04:26.070Z,15.80
2022-08-31T02:06:57.987Z,15.90
2022-08-31T02:09:27.578Z,15.90
2022-08-31T02:11:54.557Z,15.90
2022-08-31T02:14:23.152Z,16.00
2022-08-31T02:16:50.793Z,16.00
2022-08-31T02:19:18.554Z,15.90
2022-08-31T02:21:45.598Z,15.90
2022-08-31T02:24:13.904Z,15.90
2022-08-31T02:26:41.481Z,15.80
2022-08-31T02:29:08.650Z,15.80
2022-08-31T02:31:37.154Z,15.70
2022-08-31T02:34:05.500Z,15.70
2022-08-31T02:36:35.699Z,15.80
2022-08-31T02:39:05.921Z,15.80
2022-08-31T02:41:35.541Z,15.90
2022-08-31T02:44:04.254Z,15.90
2022-08-31T02:46:32.571Z,15.90
2022-08-31T02:49:26.841Z,15.90
2022-08-31T02:51:55.370Z,15.90
2022-08-31T02:54:22.676Z,15.90
2022-08-31T02:56:52.573Z,15.90
2022-08-31T02:59:20.765Z,15.90
2022-08-31T03:01:49.949Z,15.90
2022-08-31T03:04:18.978Z,15.90
2022-08-31T03:06:47.827Z,15.90
2022-08-31T03:09:16.751Z,15.80
2022-08-31T03:11:44.547Z,15.70
2022-08-31T03:14:12.956Z,15.70
2022-08-31T03:16:40.672Z,15.70
2022-08-31T03:19:08.109Z,15.70
2022-08-31T03:21:36.553Z,15.70
2022-08-31T03:24:05.108Z,15.70
2022-08-31T03:26:32.905Z,15.70
2022-08-31T03:29:00.928Z,15.70
2022-08-31T03:31:46.422Z,15.80
2022-08-31T03:34:16.080Z,15.80
2022-08-31T03:36:43.572Z,15.80
2022-08-31T03:39:11.396Z,15.80
2022-08-31T03:41:39.013Z,15.80
2022-08-31T03:44:07.605Z,15.70
2022-08-31T03:46:35.889Z,15.70
2022-08-31T03:49:04.185Z,15.60
2022-08-31T03:51:33.568Z,15.50
2022-08-31T03:54:02.302Z,15.60
2022-08-31T03:56:29.856Z,15.60
2022-08-31T03:58:58.097Z,15.60
2022-08-31T04:01:48.609Z,15.60
2022-08-31T04:04:54.618Z,15.60
2022-08-31T04:07:42.702Z,15.60
2022-08-31T04:10:28.619Z,15.70
2022-08-31T04:13:36.206Z,15.70
2022-08-31T04:16:24.184Z,15.60
2022-08-31T04:19:26.727Z,15.60
2022-08-31T04:22:14.937Z,15.70
2022-08-31T04:24:56.677Z,15.60
2022-08-31T04:27:24.669Z,15.70
2022-08-31T04:29:52.598Z,15.60
2022-08-31T04:32:20.061Z,15.60
2022-08-31T04:34:48.032Z,15.70
2022-08-31T04:37:22.592Z,15.70
2022-08-31T04:39:52.295Z,15.70
2022-08-31T04:42:19.783Z,15.70
2022-08-31T04:44:48.710Z,15.80
2022-08-31T04:47:17.086Z,15.80
2022-08-31T04:49:45.327Z,15.80
2022-08-31T04:52:12.586Z,15.80
2022-08-31T04:54:41.800Z,15.90
2022-08-31T04:57:09.569Z,15.90
2022-08-31T04:59:37.710Z,15.90
2022-08-31T05:02:24.695Z,16.00
2022-08-31T05:05:04.325Z,16.00
2022-08-31T05:07:31.748Z,16.00
2022-08-31T05:10:00.886Z,16.00
2022-08-31T05:12:28.618Z,16.00
2022-08-31T05:14:57.421Z,16.00
2022-08-31T05:17:26.880Z,16.10
2022-08-31T05:19:55.721Z,16.10
2022-08-31T05:22:23.604Z,16.10
2022-08-31T05:24:53.876Z,16.20
2022-08-31T05:27:21.858Z,16.10
2022-08-31T05:29:50.311Z,16.20
2022-08-31T05:32:41.777Z,16.30
2022-08-31T05:35:12.557Z,16.40
2022-08-31T05:37:42.411Z,16.50
2022-08-31T05:40:11.840Z,16.60
2022-08-31T05:42:39.837Z,16.60
2022-08-31T05:45:08.251Z,16.60
2022-08-31T05:47:36.806Z,16.50
2022-08-31T05:50:08.404Z,16.50
2022-08-31T05:52:37.647Z,16.50
2022-08-31T05:55:06.025Z,16.60
2022-08-31T05:57:33.675Z,16.60
2022-08-31T06:00:02.573Z,16.70
2022-08-31T06:02:29.715Z,16.70
2022-08-31T06:04:59.921Z,16.70
2022-08-31T06:07:28.665Z,16.80
2022-08-31T06:10:02.444Z,16.80
2022-08-31T06:12:32.148Z,16.80
2022-08-31T06:15:01.542Z,16.80
2022-08-31T06:17:30.284Z,16.80
2022-08-31T06:19:58.158Z,16.80
2022-08-31T06:22:26.024Z,16.80
2022-08-31T06:24:56.211Z,16.90
2022-08-31T06:27:24.924Z,16.80
2022-08-31T06:29:53.827Z,16.80
2022-08-31T06:32:22.127Z,16.80
2022-08-31T06:34:55.634Z,16.70
2022-08-31T06:37:42.784Z,16.70
2022-08-31T06:40:29.962Z,16.70
2022-08-31T06:43:15.715Z,16.80
2022-08-31T06:46:09.358Z,16.60
2022-08-31T06:48:59.618Z,16.50
2022-08-31T06:51:28.997Z,16.60
2022-08-31T06:54:07.713Z,16.50
2022-08-31T06:57:02.949Z,16.40
2022-08-31T06:59:54.104Z,16.30
2022-08-31T07:02:33.734Z,16.20
2022-08-31T07:05:02.226Z,16.20
2022-08-31T07:07:31.242Z,16.20
2022-08-31T07:09:59.976Z,16.10
2022-08-31T07:12:30.716Z,16.10
2022-08-31T07:14:59.147Z,16.00
2022-08-31T07:17:26.845Z,16.00
2022-08-31T07:19:54.649Z,15.90
2022-08-31T07:22:23.960Z,15.90
2022-08-31T07:24:58.687Z,15.90
2022-08-31T07:27:26.610Z,15.90
2022-08-31T07:30:00.222Z,15.80
2022-08-31T07:32:34.263Z,15.80
2022-08-31T07:35:02.652Z,15.80
2022-08-31T07:38:17.123Z,15.80
2022-08-31T07:41:02.826Z,15.90
2022-08-31T07:43:31.773Z,15.80
2022-08-31T07:46:00.071Z,15.90
2022-08-31T07:48:29.700Z,15.90
2022-08-31T07:51:23.318Z,15.90
2022-08-31T07:54:10.248Z,15.90
2022-08-31T07:56:43.181Z,15.90
2022-08-31T07:59:15.081Z,15.90
2022-08-31T08:01:43.811Z,16.00
2022-08-31T08:04:15.801Z,16.00
2022-08-31T08:07:12.745Z,16.00
2022-08-31T08:09:58.385Z,16.10
2022-08-31T08:12:51.328Z,16.00
2022-08-31T08:15:37.381Z,16.10
2022-08-31T08:18:26.327Z,16.10
2022-08-31T08:20:57.709Z,16.10
2022-08-31T08:23:28.837Z,16.20
2022-08-31T08:26:22.007Z,16.20
2022-08-31T08:29:08.069Z,16.20
2022-08-31T08:31:53.151Z,16.20
2022-08-31T08:34:32.604Z,16.20
2022-08-31T08:37:08.305Z,16.20
2022-08-31T08:39:38.438Z,16.20
2022-08-31T08:42:14.356Z,16.20
2022-08-31T08:44:44.025Z,16.30
2022-08-31T08:47:19.079Z,16.40
2022-08-31T08:49:55.519Z,16.40
2022-08-31T08:52:38.580Z,16.40
2022-08-31T08:55:13.391Z,16.40
2022-08-31T08:57:43.859Z,16.40
2022-08-31T09:00:25.751Z,16.40
2022-08-31T09:03:44.330Z,16.40
2022-08-31T09:06:32.192Z,16.40
2022-08-31T09:09:32.707Z,16.30
2022-08-31T09:12:21.229Z,16.30
2022-08-31T09:15:15.826Z,16.20
2022-08-31T09:17:59.991Z,16.20
2022-08-31T09:20:32.523Z,16.20
2022-08-31T09:23:01.047Z,16.10
2022-08-31T09:25:44.851Z,16.10
2022-08-31T09:28:38.921Z,16.00
2022-08-31T09:31:05.934Z,16.00
2022-08-31T09:33:46.511Z,16.10
2022-08-31T09:36:17.893Z,16.00
2022-08-31T09:38:47.348Z,16.20
2022-08-31T09:41:29.705Z,16.00
2022-08-31T09:44:32.554Z,16.10
2022-08-31T09:47:05.624Z,16.00
2022-08-31T09:49:38.045Z,16.10
2022-08-31T09:52:19.158Z,16.00
2022-08-31T09:55:14.609Z,16.10
2022-08-31T09:57:55.867Z,16.10
2022-08-31T10:00:53.176Z,16.10
2022-08-31T10:03:28.346Z,16.10
2022-08-31T10:05:56.465Z,16.20
2022-08-31T10:08:41.033Z,16.30
2022-08-31T10:11:20.656Z,16.30
2022-08-31T10:14:00.323Z,16.40
2022-08-31T10:16:46.140Z,16.50
2022-08-31T10:19:22.061Z,16.60
2022-08-31T10:22:00.036Z,16.70
2022-08-31T10:24:43.730Z,16.70
2022-08-31T10:27:31.452Z,16.80
2022-08-31T10:30:06.759Z,16.80
2022-08-31T10:32:45.895Z,17.00
2022-08-31T10:35:19.504Z,17.00
2022-08-31T10:38:20.270Z,17.20
2022-08-31T10:40:53.745Z,17.40
2022-08-31T10:43:31.740Z,17.70
2022-08-31T10:45:59.682Z,17.80
2022-08-31T10:48:28.094Z,17.90
2022-08-31T10:51:22.255Z,18.00
2022-08-31T10:54:12.206Z,17.90
2022-08-31T10:56:59.195Z,17.80
2022-08-31T10:59:37.852Z,17.80
2022-08-31T11:02:27.151Z,17.70
2022-08-31T11:05:51.245Z,17.60
2022-08-31T11:08:57.347Z,17.60
2022-08-31T11:11:27.337Z,17.60
2022-08-31T11:14:34.326Z,17.70
2022-08-31T11:17:19.343Z,17.70
2022-08-31T11:20:18.058Z,17.70
2022-08-31T11:23:09.246Z,17.80
2022-08-31T11:26:07.123Z,17.90
2022-08-31T11:28:40.148Z,17.90
2022-08-31T11:31:22.461Z,18.00
2022-08-31T11:34:14.696Z,17.90
2022-08-31T11:36:56.606Z,17.80
2022-08-31T11:39:37.774Z,17.70
2022-08-31T11:42:32.429Z,17.80
2022-08-31T11:45:07.356Z,17.60
2022-08-31T11:47:41.515Z,17.70
2022-08-31T11:50:11.068Z,17.70
2022-08-31T11:52:48.460Z,17.60
2022-08-31T11:55:45.311Z,17.70
2022-08-31T11:58:26.091Z,17.70
2022-08-31T12:00:59.601Z,17.60
2022-08-31T12:03:56.519Z,17.70
2022-08-31T12:06:28.092Z,17.70
2022-08-31T12:09:32.630Z,17.80
2022-08-31T12:12:47.383Z,18.00
2022-08-31T12:15:27.486Z,18.00
2022-08-31T12:18:00.279Z,17.80
2022-08-31T12:21:10.970Z,17.90
2022-08-31T12:24:05.077Z,18.10
2022-08-31T12:26:45.043Z,18.20
2022-08-31T12:29:36.700Z,18.30
2022-08-31T12:32:22.857Z,18.40
2022-08-31T12:35:20.978Z,18.40
2022-08-31T12:38:08.167Z,18.50
2022-08-31T12:40:44.243Z,18.80
2022-08-31T12:43:37.778Z,18.80
2022-08-31T12:46:46.260Z,18.90
2022-08-31T12:49:23.589Z,19.00
2022-08-31T12:52:12.594Z,19.00
2022-08-31T12:54:42.803Z,19.40
2022-08-31T12:57:34.397Z,19.70
2022-08-31T13:00:20.166Z,19.80
2022-08-31T13:02:53.800Z,19.80
2022-08-31T13:05:34.412Z,19.70
2022-08-31T13:08:23.960Z,19.40
2022-08-31T13:10:52.438Z,19.40
2022-08-31T13:13:26.575Z,19.50
2022-08-31T13:16:08.034Z,19.60
2022-08-31T13:18:36.119Z,19.60
2022-08-31T13:21:07.744Z,19.70
2022-08-31T13:23:39.425Z,19.60
2022-08-31T13:26:25.389Z,19.50
2022-08-31T13:29:00.335Z,19.70
2022-08-31T13:31:33.142Z,19.40
2022-08-31T13:34:07.277Z,19.00
2022-08-31T13:36:42.618Z,18.90
2022-08-31T13:39:16.529Z,18.60
2022-08-31T13:42:10.224Z,18.60
2022-08-31T13:44:44.116Z,18.70
2022-08-31T13:47:25.954Z,18.50
2022-08-31T13:50:18.993Z,18.50
2022-08-31T13:53:22.511Z,18.50
2022-08-31T13:55:43.862Z,18.60
2022-08-31T13:58:32.461Z,18.60
2022-08-31T14:01:23.640Z,18.40
2022-08-31T14:03:59.152Z,18.40
2022-08-31T14:06:37.858Z,18.20
2022-08-31T14:09:17.782Z,18.20
2022-08-31T14:12:03.710Z,18.40
2022-08-31T14:14:42.953Z,18.10
2022-08-31T14:17:17.514Z,18.10
2022-08-31T14:19:45.666Z,18.30
2022-08-31T14:22:27.215Z,18.30
2022-08-31T14:24:55.645Z,18.30
2022-08-31T14:27:24.159Z,18.10
2022-08-31T14:29:52.497Z,18.10
2022-08-31T14:32:22.671Z,18.20
2022-08-31T14:34:51.049Z,18.40
2022-08-31T14:37:23.061Z,18.50
2022-08-31T14:39:55.168Z,18.60
2022-08-31T14:42:36.846Z,18.50
2022-08-31T14:45:12.460Z,18.40
2022-08-31T14:47:50.425Z,18.30
2022-08-31T14:50:23.531Z,18.30
2022-08-31T14:53:02.393Z,18.20
2022-08-31T14:55:48.844Z,18.30
2022-08-31T14:58:29.932Z,18.60
2022-08-31T15:01:11.251Z,18.50
2022-08-31T15:03:53.856Z,18.10
2022-08-31T15:06:37.650Z,17.90
2022-08-31T15:09:20.559Z,18.00
2022-08-31T15:12:05.347Z,17.90
2022-08-31T15:14:45.373Z,18.00
2022-08-31T15:17:30.690Z,17.90
2022-08-31T15:20:15.350Z,17.80
2022-08-31T15:22:54.474Z,17.70
2022-08-31T15:25:35.340Z,17.60
2022-08-31T15:28:17.443Z,17.50
2022-08-31T15:30:48.064Z,17.40
2022-08-31T15:33:15.963Z,17.10
2022-08-31T15:35:51.461Z,17.20
2022-08-31T15:38:35.072Z,17.20
2022-08-31T15:41:22.409Z,17.20
2022-08-31T15:44:05.126Z,17.00
2022-08-31T15:47:05.887Z,17.00
2022-08-31T15:49:51.935Z,16.90
2022-08-31T15:52:36.782Z,17.00
2022-08-31T15:55:07.624Z,16.90
2022-08-31T15:57:36.290Z,16.90
2022-08-31T16:00:05.422Z,16.90
2022-08-31T16:02:36.163Z,16.90
2022-08-31T16:05:04.790Z,16.90
2022-08-31T16:07:32.658Z,16.90
2022-08-31T16:10:02.128Z,16.90
2022-08-31T16:12:30.272Z,16.90
2022-08-31T16:14:58.228Z,17.00
2022-08-31T16:17:26.558Z,17.00
2022-08-31T16:19:54.077Z,17.00
2022-08-31T16:22:22.623Z,17.00
2022-08-31T16:24:57.459Z,17.00
2022-08-31T16:27:25.077Z,17.00
2022-08-31T16:29:53.282Z,17.00
2022-08-31T16:32:21.094Z,16.90
2022-08-31T16:34:49.611Z,17.00
2022-08-31T16:37:17.115Z,17.00
2022-08-31T16:39:48.586Z,16.90
2022-08-31T16:42:16.237Z,17.00
2022-08-31T16:44:46.031Z,17.10
2022-08-31T16:47:16.378Z,17.20
2022-08-31T16:49:44.809Z,17.20
2022-08-31T16:52:21.661Z,17.20
2022-08-31T16:54:51.087Z,17.20
2022-08-31T16:57:23.633Z,17.20
2022-08-31T16:59:51.367Z,17.10
2022-08-31T17:02:21.167Z,17.10
2022-08-31T17:04:53.049Z,16.90
2022-08-31T17:07:24.334Z,16.80
2022-08-31T17:09:57.423Z,16.90
2022-08-31T17:12:27.573Z,17.00
2022-08-31T17:14:56.107Z,16.90
2022-08-31T17:17:26.073Z,16.90
2022-08-31T17:19:56.062Z,16.70
2022-08-31T17:22:31.713Z,16.60
2022-08-31T17:25:03.204Z,16.60
2022-08-31T17:27:33.547Z,16.50
2022-08-31T17:30:05.324Z,16.40
2022-08-31T17:32:39.385Z,16.40
2022-08-31T17:35:18.301Z,16.30
2022-08-31T17:37:47.876Z,16.30
2022-08-31T17:40:16.858Z,16.20
2022-08-31T17:42:45.666Z,16.10
2022-08-31T17:45:13.523Z,15.90
2022-08-31T17:47:41.612Z,15.80
2022-08-31T17:50:10.286Z,15.70
2022-08-31T17:52:38.535Z,15.50
2022-08-31T17:55:07.436Z,15.50
2022-08-31T17:57:35.262Z,15.40
2022-08-31T18:00:05.762Z,15.40
2022-08-31T18:02:37.958Z,15.50
2022-08-31T18:05:09.447Z,15.50
2022-08-31T18:07:41.052Z,15.50
2022-08-31T18:10:09.513Z,15.60
2022-08-31T18:12:41.231Z,15.60
2022-08-31T18:15:10.713Z,15.60
2022-08-31T18:17:38.979Z,15.50
2022-08-31T18:20:06.952Z,15.50
2022-08-31T18:22:35.666Z,15.50
2022-08-31T18:25:03.470Z,15.40
2022-08-31T18:27:31.753Z,15.20
2022-08-31T18:30:00.921Z,15.10
2022-08-31T18:32:33.072Z,14.90
2022-08-31T18:35:00.449Z,14.80
2022-08-31T18:37:29.283Z,14.80
2022-08-31T18:40:14.802Z,14.80
2022-08-31T18:43:02.660Z,14.80
2022-08-31T18:45:30.869Z,14.80
2022-08-31T18:50:48.947Z,14.90
2022-08-31T18:53:27.523Z,14.80
2022-08-31T18:55:56.751Z,14.80
2022-08-31T18:58:25.175Z,14.70
2022-08-31T19:00:57.961Z,14.70
2022-08-31T19:03:27.707Z,14.70
2022-08-31T19:05:56.555Z,14.60
2022-08-31T19:08:26.348Z,14.50
2022-08-31T19:10:56.438Z,14.40
2022-08-31T19:13:28.713Z,14.30
2022-08-31T19:16:00.737Z,14.30
2022-08-31T19:18:29.126Z,14.20
2022-08-31T19:20:56.176Z,14.10
2022-08-31T19:23:25.319Z,14.00
2022-08-31T19:25:54.188Z,13.90
2022-08-31T19:28:22.205Z,13.90
2022-08-31T19:30:49.377Z,13.80
2022-08-31T19:33:18.945Z,13.80
2022-08-31T19:35:46.229Z,13.80
2022-08-31T19:38:14.387Z,13.80
2022-08-31T19:40:42.271Z,13.70
2022-08-31T19:46:15.638Z,13.70
2022-08-31T19:48:45.152Z,13.60
2022-08-31T19:51:17.627Z,13.60
2022-08-31T19:53:46.465Z,13.60
2022-08-31T19:56:17.422Z,13.60
2022-08-31T19:58:48.492Z,13.60
2022-08-31T20:01:25.413Z,13.50
2022-08-31T20:03:55.354Z,13.50
2022-08-31T20:06:25.877Z,13.70
2022-08-31T20:08:54.273Z,13.80
2022-08-31T20:11:24.797Z,13.70
2022-08-31T20:13:55.127Z,13.70
2022-08-31T20:16:22.386Z,13.80
2022-08-31T20:19:04.078Z,13.80
2022-08-31T20:21:34.799Z,13.80
2022-08-31T20:24:06.516Z,14.00
2022-08-31T20:26:38.238Z,14.00
2022-08-31T20:29:18.820Z,14.10
2022-08-31T20:31:48.946Z,14.00
2022-08-31T20:34:19.098Z,13.90
2022-08-31T20:36:48.293Z,13.80
2022-08-31T20:39:18.678Z,13.90
2022-08-31T20:41:49.153Z,13.90
2022-08-31T20:44:25.300Z,14.00
2022-08-31T20:47:15.112Z,14.10
2022-08-31T20:49:53.531Z,14.10
2022-08-31T20:52:24.533Z,14.10
2022-08-31T20:55:01.384Z,14.20
2022-08-31T20:57:35.342Z,14.20
2022-08-31T21:00:05.849Z,14.30
2022-08-31T21:02:34.812Z,14.30
2022-08-31T21:05:36.713Z,14.40
2022-08-31T21:07:57.636Z,14.50
2022-08-31T21:10:37.875Z,14.50
2022-08-31T21:13:09.634Z,14.60
2022-08-31T21:15:42.743Z,14.60
2022-08-31T21:18:10.895Z,14.50
2022-08-31T21:20:38.328Z,14.60
2022-08-31T21:23:07.114Z,14.70
2022-08-31T21:25:40.123Z,14.70
2022-08-31T21:28:08.731Z,14.70
2022-08-31T21:30:37.622Z,14.70
2022-08-31T21:33:05.336Z,14.70
2022-08-31T21:35:33.399Z,14.70
2022-08-31T21:38:03.260Z,14.70
2022-08-31T21:40:31.499Z,14.60
2022-08-31T21:43:02.034Z,14.50
2022-08-31T21:45:29.905Z,14.50
2022-08-31T21:47:58.326Z,14.50
2022-08-31T21:50:28.646Z,14.40
2022-08-31T21:53:00.310Z,14.30
2022-08-31T21:55:28.421Z,14.40
2022-08-31T21:57:56.258Z,14.30
2022-08-31T22:00:29.904Z,14.30
2022-08-31T22:02:58.427Z,14.30
2022-08-31T22:05:26.687Z,14.30
2022-08-31T22:07:54.489Z,14.40
2022-08-31T22:10:24.946Z,14.30
2022-08-31T22:12:53.696Z,14.30
2022-08-31T22:15:24.101Z,14.30
2022-08-31T22:18:25.905Z,14.30
2022-08-31T22:20:42.278Z,14.40
2022-08-31T22:23:11.000Z,14.40
2022-08-31T22:25:38.610Z,14.40
2022-08-31T22:28:07.399Z,14.40
2022-08-31T22:30:36.650Z,14.30
2022-08-31T22:33:04.729Z,14.30
2022-08-31T22:35:38.847Z,14.20
2022-08-31T22:38:09.044Z,14.20
2022-08-31T22:40:39.845Z,14.10
2022-08-31T22:43:09.588Z,14.10
2022-08-31T22:45:48.474Z,14.10
2022-08-31T22:48:17.084Z,14.00
2022-08-31T22:50:44.404Z,14.00
2022-08-31T22:53:12.700Z,14.00
2022-08-31T22:55:42.911Z,14.10
2022-08-31T22:58:14.817Z,14.10
2022-08-31T23:00:45.376Z,14.00
2022-08-31T23:03:14.828Z,14.00
2022-08-31T23:05:43.993Z,13.90
2022-08-31T23:08:13.978Z,13.90
2022-08-31T23:10:41.930Z,13.90
2022-08-31T23:13:10.475Z,13.90
2022-08-31T23:15:37.486Z,13.90
2022-08-31T23:18:09.670Z,13.90
2022-08-31T23:20:38.014Z,13.80
2022-08-31T23:23:06.057Z,13.80
2022-08-31T23:25:33.371Z,13.80
2022-08-31T23:28:02.299Z,13.70
2022-08-31T23:30:29.290Z,13.70
2022-08-31T23:33:00.428Z,13.60
2022-08-31T23:35:29.203Z,13.70
2022-08-31T23:37:57.556Z,13.70
2022-08-31T23:40:26.744Z,13.60
2022-08-31T23:42:54.950Z,13.60
2022-08-31T23:45:22.286Z,13.60
2022-08-31T23:47:51.400Z,13.60
2022-08-31T23:50:18.397Z,13.60
2022-08-31T23:52:47.509Z,13.50
2022-08-31T23:55:15.108Z,13.50
2022-08-31T23:57:44.417Z,13.60
